sensor_id;sensor_type;location;lat;lon;timestamp;P1;durP1;ratioP1;P2;durP2;ratioP2
20314;SDS011;10315;50.958;13.080;2022-09-09T00:05:31;1.77;;;1.40;;
20314;SDS011;10315;50.958;13.080;2022-09-09T00:15:39;1.50;;;1.40;;
20314;SDS011;10315;50.958;13.080;2022-09-09T00:25:48;5.60;;;1.60;;
20314;SDS011;10315;50.958;13.080;2022-09-09T00:35:56;3.33;;;1.90;;
20314;SDS011;10315;50.958;13.080;2022-09-09T00:56:33;3.77;;;2.00;;
20314;SDS011;10315;50.958;13.080;2022-09-09T01:06:42;4.17;;;2.00;;
20314;SDS011;10315;50.958;13.080;2022-09-09T01:16:50;4.27;;;1.83;;
20314;SDS011;10315;50.958;13.080;2022-09-09T01:26:57;4.27;;;1.40;;
20314;SDS011;10315;50.958;13.080;2022-09-09T01:37:02;1.23;;;1.07;;
20314;SDS011;10315;50.958;13.080;2022-09-09T01:47:07;5.40;;;1.10;;
20314;SDS011;10315;50.958;13.080;2022-09-09T01:57:11;3.43;;;1.00;;
20314;SDS011;10315;50.958;13.080;2022-09-09T02:07:25;2.47;;;1.17;;
20314;SDS011;10315;50.958;13.080;2022-09-09T02:17:35;2.17;;;1.40;;
20314;SDS011;10315;50.958;13.080;2022-09-09T02:27:41;2.20;;;1.13;;
20314;SDS011;10315;50.958;13.080;2022-09-09T02:37:46;1.37;;;1.03;;
20314;SDS011;10315;50.958;13.080;2022-09-09T02:47:52;3.00;;;1.23;;
20314;SDS011;10315;50.958;13.080;2022-09-09T02:58:00;3.03;;;1.47;;
20314;SDS011;10315;50.958;13.080;2022-09-09T03:08:05;1.77;;;1.00;;
20314;SDS011;10315;50.958;13.080;2022-09-09T03:18:07;4.63;;;1.10;;
20314;SDS011;10315;50.958;13.080;2022-09-09T03:28:10;2.53;;;0.90;;
20314;SDS011;10315;50.958;13.080;2022-09-09T03:38:12;2.20;;;1.07;;
20314;SDS011;10315;50.958;13.080;2022-09-09T03:48:15;3.23;;;1.20;;
20314;SDS011;10315;50.958;13.080;2022-09-09T03:58:18;3.37;;;1.30;;
20314;SDS011;10315;50.958;13.080;2022-09-09T04:08:21;3.50;;;1.30;;
20314;SDS011;10315;50.958;13.080;2022-09-09T04:18:24;2.67;;;1.20;;
20314;SDS011;10315;50.958;13.080;2022-09-09T04:28:44;3.97;;;0.90;;
20314;SDS011;10315;50.958;13.080;2022-09-09T04:38:47;3.97;;;1.20;;
20314;SDS011;10315;50.958;13.080;2022-09-09T04:48:50;2.00;;;0.80;;
20314;SDS011;10315;50.958;13.080;2022-09-09T04:58:53;1.87;;;0.70;;
20314;SDS011;10315;50.958;13.080;2022-09-09T05:08:56;2.47;;;0.90;;
20314;SDS011;10315;50.958;13.080;2022-09-09T05:19:02;5.07;;;0.77;;
20314;SDS011;10315;50.958;13.080;2022-09-09T05:29:05;3.57;;;0.90;;
20314;SDS011;10315;50.958;13.080;2022-09-09T05:39:06;6.30;;;1.30;;
20314;SDS011;10315;50.958;13.080;2022-09-09T05:49:09;2.43;;;0.83;;
20314;SDS011;10315;50.958;13.080;2022-09-09T05:59:11;2.90;;;0.90;;
20314;SDS011;10315;50.958;13.080;2022-09-09T06:09:14;2.30;;;1.33;;
20314;SDS011;10315;50.958;13.080;2022-09-09T06:19:15;1.15;;;0.80;;
20314;SDS011;10315;50.958;13.080;2022-09-09T06:29:18;1.50;;;0.77;;
20314;SDS011;10315;50.958;13.080;2022-09-09T06:39:20;4.95;;;0.80;;
20314;SDS011;10315;50.958;13.080;2022-09-09T06:49:23;1.83;;;0.68;;
20314;SDS011;10315;50.958;13.080;2022-09-09T06:59:25;1.25;;;0.50;;
20314;SDS011;10315;50.958;13.080;2022-09-09T07:09:32;2.22;;;0.80;;
20314;SDS011;10315;50.958;13.080;2022-09-09T07:19:33;3.83;;;0.88;;
20314;SDS011;10315;50.958;13.080;2022-09-09T07:29:39;2.92;;;0.80;;
20314;SDS011;10315;50.958;13.080;2022-09-09T07:39:41;1.42;;;0.70;;
20314;SDS011;10315;50.958;13.080;2022-09-09T07:49:44;1.15;;;0.75;;
20314;SDS011;10315;50.958;13.080;2022-09-09T07:59:46;2.90;;;1.10;;
20314;SDS011;10315;50.958;13.080;2022-09-09T08:09:49;2.35;;;0.90;;
20314;SDS011;10315;50.958;13.080;2022-09-09T08:19:51;1.92;;;1.02;;
20314;SDS011;10315;50.958;13.080;2022-09-09T08:29:55;3.63;;;1.67;;
20314;SDS011;10315;50.958;13.080;2022-09-09T08:39:57;3.65;;;0.90;;
20314;SDS011;10315;50.958;13.080;2022-09-09T08:50:05;2.35;;;1.00;;
20314;SDS011;10315;50.958;13.080;2022-09-09T09:00:17;1.67;;;0.85;;
20314;SDS011;10315;50.958;13.080;2022-09-09T09:10:24;5.82;;;1.70;;
20314;SDS011;10315;50.958;13.080;2022-09-09T09:20:35;2.75;;;0.95;;
20314;SDS011;10315;50.958;13.080;2022-09-09T09:30:46;1.23;;;0.80;;
20314;SDS011;10315;50.958;13.080;2022-09-09T09:40:54;1.80;;;1.00;;
20314;SDS011;10315;50.958;13.080;2022-09-09T09:50:59;2.13;;;0.90;;
20314;SDS011;10315;50.958;13.080;2022-09-09T10:01:02;1.98;;;1.10;;
20314;SDS011;10315;50.958;13.080;2022-09-09T10:11:12;2.50;;;0.88;;
20314;SDS011;10315;50.958;13.080;2022-09-09T10:21:32;2.75;;;1.00;;
20314;SDS011;10315;50.958;13.080;2022-09-09T10:31:51;3.95;;;1.75;;
20314;SDS011;10315;50.958;13.080;2022-09-09T10:42:05;1.25;;;1.13;;
20314;SDS011;10315;50.958;13.080;2022-09-09T10:52:12;2.55;;;1.00;;
20314;SDS011;10315;50.958;13.080;2022-09-09T11:02:25;0.80;;;0.52;;
20314;SDS011;10315;50.958;13.080;2022-09-09T11:12:37;0.75;;;0.52;;
20314;SDS011;10315;50.958;13.080;2022-09-09T11:22:46;1.02;;;0.65;;
20314;SDS011;10315;50.958;13.080;2022-09-09T11:33:02;0.70;;;0.70;;
20314;SDS011;10315;50.958;13.080;2022-09-09T11:43:28;1.77;;;0.60;;
20314;SDS011;10315;50.958;13.080;2022-09-09T11:53:34;5.35;;;0.70;;
20314;SDS011;10315;50.958;13.080;2022-09-09T12:03:41;2.28;;;0.70;;
20314;SDS011;10315;50.958;13.080;2022-09-09T12:13:53;2.45;;;0.73;;
20314;SDS011;10315;50.958;13.080;2022-09-09T12:23:55;3.08;;;0.82;;
20314;SDS011;10315;50.958;13.080;2022-09-09T12:34:06;2.95;;;0.55;;
20314;SDS011;10315;50.958;13.080;2022-09-09T12:44:12;1.67;;;0.70;;
20314;SDS011;10315;50.958;13.080;2022-09-09T12:54:15;1.67;;;0.75;;
20314;SDS011;10315;50.958;13.080;2022-09-09T13:04:19;2.67;;;0.80;;
20314;SDS011;10315;50.958;13.080;2022-09-09T13:14:25;2.53;;;0.80;;
20314;SDS011;10315;50.958;13.080;2022-09-09T13:24:33;2.28;;;0.70;;
20314;SDS011;10315;50.958;13.080;2022-09-09T13:34:37;1.50;;;0.60;;
20314;SDS011;10315;50.958;13.080;2022-09-09T13:44:39;2.10;;;0.47;;
20314;SDS011;10315;50.958;13.080;2022-09-09T13:54:46;1.80;;;0.52;;
20314;SDS011;10315;50.958;13.080;2022-09-09T14:04:48;4.13;;;0.57;;
20314;SDS011;10315;50.958;13.080;2022-09-09T14:14:56;1.70;;;0.75;;
20314;SDS011;10315;50.958;13.080;2022-09-09T14:25:00;1.27;;;0.60;;
20314;SDS011;10315;50.958;13.080;2022-09-09T14:35:04;1.75;;;0.80;;
20314;SDS011;10315;50.958;13.080;2022-09-09T14:45:06;2.85;;;0.80;;
20314;SDS011;10315;50.958;13.080;2022-09-09T14:55:11;1.17;;;0.60;;
20314;SDS011;10315;50.958;13.080;2022-09-09T15:05:12;1.33;;;0.50;;
20314;SDS011;10315;50.958;13.080;2022-09-09T15:15:16;0.68;;;0.60;;
20314;SDS011;10315;50.958;13.080;2022-09-09T15:25:18;1.90;;;0.60;;
20314;SDS011;10315;50.958;13.080;2022-09-09T15:35:21;1.92;;;0.90;;
20314;SDS011;10315;50.958;13.080;2022-09-09T15:45:22;1.55;;;0.85;;
20314;SDS011;10315;50.958;13.080;2022-09-09T15:55:34;1.60;;;0.60;;
20314;SDS011;10315;50.958;13.080;2022-09-09T16:05:36;0.50;;;0.50;;
20314;SDS011;10315;50.958;13.080;2022-09-09T16:15:40;4.07;;;0.68;;
20314;SDS011;10315;50.958;13.080;2022-09-09T16:25:42;1.27;;;0.52;;
20314;SDS011;10315;50.958;13.080;2022-09-09T16:35:45;1.30;;;0.50;;
20314;SDS011;10315;50.958;13.080;2022-09-09T17:18:41;0.50;;;0.50;;
20314;SDS011;10315;50.958;13.080;2022-09-09T17:28:43;2.88;;;1.13;;
20314;SDS011;10315;50.958;13.080;2022-09-09T17:38:46;2.58;;;1.10;;
20314;SDS011;10315;50.958;13.080;2022-09-09T17:48:49;2.78;;;0.80;;
20314;SDS011;10315;50.958;13.080;2022-09-09T17:58:54;1.58;;;0.70;;
20314;SDS011;10315;50.958;13.080;2022-09-09T18:08:56;2.13;;;0.82;;
20314;SDS011;10315;50.958;13.080;2022-09-09T18:19:03;0.85;;;0.70;;
20314;SDS011;10315;50.958;13.080;2022-09-09T18:29:06;1.27;;;0.90;;
20314;SDS011;10315;50.958;13.080;2022-09-09T18:39:14;1.02;;;0.75;;
20314;SDS011;10315;50.958;13.080;2022-09-09T18:49:17;1.35;;;0.63;;
20314;SDS011;10315;50.958;13.080;2022-09-09T18:59:26;2.88;;;0.82;;
20314;SDS011;10315;50.958;13.080;2022-09-09T19:09:31;3.72;;;0.82;;
20314;SDS011;10315;50.958;13.080;2022-09-09T19:19:34;1.27;;;0.70;;
20314;SDS011;10315;50.958;13.080;2022-09-09T19:29:36;2.33;;;0.70;;
20314;SDS011;10315;50.958;13.080;2022-09-09T19:39:43;1.75;;;0.85;;
20314;SDS011;10315;50.958;13.080;2022-09-09T20:00:43;2.67;;;0.85;;
20314;SDS011;10315;50.958;13.080;2022-09-09T20:10:51;1.95;;;0.70;;
20314;SDS011;10315;50.958;13.080;2022-09-09T20:20:57;0.80;;;0.60;;
20314;SDS011;10315;50.958;13.080;2022-09-09T20:31:02;2.75;;;0.80;;
20314;SDS011;10315;50.958;13.080;2022-09-09T20:41:05;1.53;;;0.60;;
20314;SDS011;10315;50.958;13.080;2022-09-09T20:51:13;1.60;;;0.50;;
20314;SDS011;10315;50.958;13.080;2022-09-09T21:01:18;0.57;;;0.57;;
20314;SDS011;10315;50.958;13.080;2022-09-09T21:11:21;1.37;;;0.87;;
20314;SDS011;10315;50.958;13.080;2022-09-09T21:21:24;1.30;;;0.90;;
20314;SDS011;10315;50.958;13.080;2022-09-09T21:31:26;0.90;;;0.80;;
20314;SDS011;10315;50.958;13.080;2022-09-09T21:41:29;1.00;;;0.90;;
20314;SDS011;10315;50.958;13.080;2022-09-09T21:51:31;2.80;;;1.23;;
20314;SDS011;10315;50.958;13.080;2022-09-09T22:01:34;2.60;;;1.10;;
20314;SDS011;10315;50.958;13.080;2022-09-09T22:11:35;2.63;;;0.93;;
20314;SDS011;10315;50.958;13.080;2022-09-09T22:21:38;1.57;;;0.80;;
20314;SDS011;10315;50.958;13.080;2022-09-09T22:31:40;2.37;;;0.87;;
20314;SDS011;10315;50.958;13.080;2022-09-09T22:41:43;2.00;;;0.70;;
20314;SDS011;10315;50.958;13.080;2022-09-09T22:51:47;1.30;;;1.20;;
20314;SDS011;10315;50.958;13.080;2022-09-09T23:01:50;2.53;;;0.80;;
20314;SDS011;10315;50.958;13.080;2022-09-09T23:11:51;2.43;;;0.90;;
20314;SDS011;10315;50.958;13.080;2022-09-09T23:21:56;2.10;;;0.63;;
20314;SDS011;10315;50.958;13.080;2022-09-09T23:31:58;1.47;;;0.80;;
20314;SDS011;10315;50.958;13.080;2022-09-09T23:42:01;4.97;;;0.97;;
20314;SDS011;10315;50.958;13.080;2022-09-09T23:52:05;1.50;;;0.87;;
